Aérodrome :
LOGIN :

S'inscrire | Disclaimer

   EN    FR    IT 

 










Légende :    VFR   VFR Marginal   IFR   IFR Intensif   IFR Très Intensif
Visi : 
Plafond : 
>= 8 km
>= 3000ft
5 à 8 km
1000 à 3000 ft
1500m à 5 km
500 à 1000 ft
800 à 1500m
200 à 500 ft
< 800m
< 200 ft
Symboles :   Orages  Brouillard  Fortes neiges  Fortes précipitations  Vent > 20 kt
SIGMETs :   Divers  Orages  Givrage  Turbulence  Onde Orograph.  Cendres Volcan.







- Altitude de l'aérodrome : 277 ft
- Code IATA : JER
- Voir les cartes d'approche


EGJJ - Jersey

DERNIER METAR :
  • 230850Z 18013KT 9999 FEW007 SCT009 16/14 Q1013

METARs EXPIRÉS :
  • 230820Z 19015KT 9999 FEW007 SCT008 16/14 Q1013
  • 230750Z 19012KT 9999 FEW006 SCT008 16/14 Q1013
  • 230720Z 19012KT 9999 FEW006 SCT009 15/14 Q1012
  • 230650Z 20013KT 9999 FEW006 SCT008 15/14 Q1012
  • 230620Z 20012KT 9999 FEW006 15/14 Q1012

TAF TAF EGJJ
Valide du 23 à 09h jusqu'au 23 à 18h UTC


230806Z 2309/2318 19017KT 9999 FEW009 SCT010
TEMPO 2309/2312 BKN010
BECMG 2312/2314 9000 -RA
TEMPO 2313/2318 18021G32KT 2000 +RADZ BR BKN004
ATIS : +44 1534 498 073
Pas de NOTAMs connus pour ce terrain.



MET'MAP, la Météo Aéronautique d'un coup d'oeil ! - Copyright ORBIFLY Décembre 2007 - Disclaimer

ORBIFLY MET'MAP TEAM :

Programmation & Développement : Alexandra Zaïnal
Conception & Développement : Baudouin d'Aumeries
Co-Programmation & Développement : Marc-Olivier Méhu
Soutien technique & logistique : Manuel Goepfert

Contact : metmap@orbifly.com




SOURCES & CREDITS :

   NOAA